createdAt,value
2019-02-26T00:01:55.054Z,4.00
2019-02-26T00:06:57.802Z,3.50
2019-02-26T00:11:59.159Z,4.20
2019-02-26T00:17:00.251Z,3.10
2019-02-26T00:22:01.368Z,3.30
2019-02-26T00:27:03.776Z,3.40
2019-02-26T00:32:07.124Z,3.40
2019-02-26T00:37:09.030Z,3.40
2019-02-26T00:42:10.095Z,3.10
2019-02-26T00:47:11.292Z,3.10
2019-02-26T00:52:13.372Z,2.70
2019-02-26T00:57:15.394Z,3.50
2019-02-26T01:02:16.488Z,2.60
2019-02-26T01:07:19.113Z,2.60
2019-02-26T01:12:20.695Z,2.80
2019-02-26T01:17:21.781Z,2.50
2019-02-26T01:22:22.885Z,2.60
2019-02-26T01:27:24.007Z,0.70
2019-02-26T01:32:25.101Z,2.50
2019-02-26T01:37:27.864Z,2.50
2019-02-26T01:42:29.872Z,2.30
2019-02-26T01:47:32.312Z,2.30
2019-02-26T01:52:33.515Z,2.40
2019-02-26T01:57:34.601Z,2.20
2019-02-26T02:02:35.715Z,1.90
2019-02-26T02:07:36.908Z,1.80
2019-02-26T02:12:39.722Z,1.60
2019-02-26T02:17:41.588Z,1.50
2019-02-26T02:22:44.452Z,1.40
2019-02-26T02:27:49.744Z,1.60
2019-02-26T02:32:53.605Z,1.60
2019-02-26T02:37:53.516Z,1.60
2019-02-26T02:42:54.828Z,1.50
2019-02-26T02:48:00.368Z,1.50
2019-02-26T02:52:59.700Z,1.40
2019-02-26T02:58:01.923Z,1.40
2019-02-26T03:03:03.030Z,1.30
2019-02-26T03:08:04.128Z,2.50
2019-02-26T03:13:05.232Z,1.40
2019-02-26T03:18:08.703Z,1.50
2019-02-26T03:23:12.349Z,1.40
2019-02-26T03:28:12.355Z,2.70
2019-02-26T03:33:13.498Z,1.20
2019-02-26T03:38:15.189Z,1.10
2019-02-26T03:43:17.659Z,1.10
2019-02-26T03:48:20.355Z,1.00
2019-02-26T03:53:25.586Z,1.00
2019-02-26T03:58:24.751Z,1.00
2019-02-26T04:03:25.964Z,0.90
2019-02-26T04:08:29.977Z,0.90
2019-02-26T04:13:30.046Z,1.10
2019-02-26T04:18:34.137Z,1.10
2019-02-26T04:23:36.025Z,1.10
2019-02-26T04:28:44.482Z,1.00
2019-02-26T04:33:47.756Z,0.90
2019-02-26T04:39:10.583Z,0.90
2019-02-26T04:44:41.972Z,0.70
2019-02-26T04:49:43.215Z,0.80
2019-02-26T04:54:44.468Z,0.80
2019-02-26T04:59:45.565Z,0.80
2019-02-26T05:04:46.660Z,0.60
2019-02-26T05:09:50.025Z,0.60
2019-02-26T05:14:50.752Z,0.70
2019-02-26T05:19:51.956Z,0.80
2019-02-26T05:24:53.168Z,1.10
2019-02-26T05:29:54.823Z,0.80
2019-02-26T05:34:56.080Z,0.80
2019-02-26T05:39:57.187Z,0.70
2019-02-26T05:45:00.701Z,0.70
2019-02-26T05:50:02.704Z,0.70
2019-02-26T05:55:05.076Z,0.70
2019-02-26T06:00:11.130Z,1.80
2019-02-26T06:05:12.347Z,1.00
2019-02-26T06:10:14.531Z,1.00
2019-02-26T06:15:15.643Z,0.90
2019-02-26T06:20:19.245Z,1.10
2019-02-26T06:25:23.963Z,1.10
2019-02-26T06:30:23.499Z,1.60
2019-02-26T06:35:24.691Z,0.90
2019-02-26T06:40:25.856Z,1.30
2019-02-26T06:45:26.956Z,1.00
2019-02-26T06:50:28.067Z,1.10
2019-02-26T06:55:29.242Z,1.50
2019-02-26T07:00:30.361Z,1.20
2019-02-26T07:05:31.466Z,1.30
2019-02-26T07:10:33.702Z,1.60
2019-02-26T07:15:35.051Z,1.80
2019-02-26T07:20:39.377Z,2.00
2019-02-26T07:25:41.466Z,2.40
2019-02-26T07:30:44.480Z,2.90
2019-02-26T07:35:45.282Z,3.40
2019-02-26T07:40:46.374Z,3.80
2019-02-26T07:45:47.462Z,4.30
2019-02-26T07:50:50.699Z,5.20
2019-02-26T07:55:51.574Z,4.70
2019-02-26T08:00:52.675Z,5.80
2019-02-26T08:05:53.873Z,5.30
2019-02-26T08:10:54.971Z,5.40
2019-02-26T08:15:58.318Z,5.50
2019-02-26T08:21:00.718Z,6.30
2019-02-26T08:26:02.306Z,6.40
2019-02-26T08:31:05.351Z,8.10
2019-02-26T08:36:06.680Z,9.50
2019-02-26T08:41:07.768Z,10.40
2019-02-26T08:46:09.331Z,11.60
2019-02-26T08:51:14.286Z,12.60
2019-02-26T08:56:14.982Z,13.50
2019-02-26T09:01:16.086Z,13.40
2019-02-26T09:06:17.224Z,13.40
2019-02-26T09:11:18.323Z,13.80
2019-02-26T09:16:20.408Z,14.50
2019-02-26T09:21:22.908Z,16.00
2019-02-26T09:26:24.225Z,17.20
2019-02-26T09:31:25.343Z,16.40
2019-02-26T09:36:29.152Z,17.00
2019-02-26T09:41:30.332Z,17.50
2019-02-26T09:46:33.564Z,17.30
2019-02-26T09:51:35.245Z,17.70
2019-02-26T09:56:37.696Z,17.50
2019-02-26T10:01:40.747Z,16.70
2019-02-26T10:06:42.621Z,17.20
2019-02-26T10:11:46.911Z,17.50
2019-02-26T10:16:51.398Z,18.60
2019-02-26T10:21:50.991Z,18.50
2019-02-26T10:26:52.096Z,20.70
2019-02-26T10:31:56.118Z,21.20
2019-02-26T10:36:56.243Z,21.20
2019-02-26T10:41:57.464Z,20.20
2019-02-26T10:47:00.690Z,19.40
2019-02-26T10:52:01.561Z,20.40
2019-02-26T10:57:04.576Z,22.10
2019-02-26T11:02:06.871Z,22.40
2019-02-26T11:07:09.401Z,21.80
2019-02-26T11:12:10.963Z,22.50
2019-02-26T11:17:12.058Z,21.00
2019-02-26T11:22:15.604Z,21.10
2019-02-26T11:27:17.290Z,21.00
2019-02-26T11:32:18.588Z,21.20
2019-02-26T11:37:20.677Z,21.20
2019-02-26T11:42:25.600Z,22.20
2019-02-26T11:47:25.857Z,23.60
2019-02-26T11:52:26.959Z,24.80
2019-02-26T11:57:30.202Z,25.50
2019-02-26T12:02:33.847Z,27.20
2019-02-26T12:07:34.856Z,25.90
2019-02-26T12:12:36.860Z,24.60
2019-02-26T12:17:39.080Z,25.10
2019-02-26T12:22:41.189Z,26.30
2019-02-26T12:27:45.519Z,25.90
2019-02-26T12:32:47.626Z,26.10
2019-02-26T12:37:50.140Z,25.50
2019-02-26T12:42:52.743Z,26.30
2019-02-26T12:47:55.269Z,27.90
2019-02-26T12:52:57.586Z,27.60
2019-02-26T12:57:59.466Z,28.10
2019-02-26T13:03:00.875Z,28.60
2019-02-26T13:08:01.976Z,28.00
2019-02-26T13:13:07.430Z,26.40
2019-02-26T13:18:06.292Z,27.00
2019-02-26T13:23:17.060Z,26.20
2019-02-26T13:28:10.493Z,27.70
2019-02-26T13:33:11.726Z,28.90
2019-02-26T13:38:12.843Z,30.00
2019-02-26T13:43:14.122Z,31.40
2019-02-26T13:48:15.966Z,30.90
2019-02-26T13:53:17.077Z,29.60
2019-02-26T13:58:18.171Z,28.80
2019-02-26T14:03:19.374Z,28.30
2019-02-26T14:08:20.480Z,30.00
2019-02-26T14:13:21.639Z,30.70
2019-02-26T14:18:22.797Z,30.10
2019-02-26T14:23:23.887Z,30.10
2019-02-26T14:28:24.995Z,30.50
2019-02-26T14:33:26.110Z,30.10
2019-02-26T14:38:27.317Z,29.80
2019-02-26T14:43:28.523Z,28.70
2019-02-26T14:48:29.927Z,28.50
2019-02-26T14:53:31.008Z,30.50
2019-02-26T14:58:32.198Z,29.40
2019-02-26T15:03:33.331Z,29.00
2019-02-26T15:08:34.523Z,28.40
2019-02-26T15:13:35.605Z,29.80
2019-02-26T15:18:36.750Z,29.60
2019-02-26T15:23:37.916Z,28.80
2019-02-26T15:28:39.021Z,28.00
2019-02-26T15:33:40.139Z,28.20
2019-02-26T15:38:41.251Z,27.50
2019-02-26T15:43:42.453Z,27.60
2019-02-26T15:48:43.554Z,28.10
2019-02-26T15:53:44.970Z,29.30
2019-02-26T15:58:46.061Z,27.60
2019-02-26T16:03:47.163Z,26.30
2019-02-26T16:08:48.276Z,25.40
2019-02-26T16:13:49.393Z,24.70
2019-02-26T16:18:50.609Z,24.00
2019-02-26T16:23:51.711Z,23.30
2019-02-26T16:28:56.426Z,22.70
2019-02-26T16:33:57.779Z,21.20
2019-02-26T16:38:58.933Z,19.60
2019-02-26T16:44:00.048Z,18.00
2019-02-26T16:49:01.362Z,16.60
2019-02-26T16:54:04.759Z,15.60
2019-02-26T16:59:07.637Z,14.70
2019-02-26T17:04:08.930Z,14.00
2019-02-26T17:09:10.576Z,13.40
2019-02-26T17:14:11.816Z,13.30
2019-02-26T17:19:15.128Z,12.30
2019-02-26T17:24:16.056Z,12.10
2019-02-26T17:29:18.338Z,11.70
2019-02-26T17:34:21.627Z,11.30
2019-02-26T17:39:23.685Z,10.90
2019-02-26T17:44:26.322Z,10.50
2019-02-26T17:49:27.451Z,10.20
2019-02-26T17:54:28.589Z,9.80
2019-02-26T17:59:29.703Z,9.50
2019-02-26T18:04:30.816Z,9.40
2019-02-26T18:09:34.393Z,9.30
2019-02-26T18:14:38.553Z,9.20
2019-02-26T18:19:38.108Z,9.20
2019-02-26T18:24:39.224Z,8.90
2019-02-26T18:29:40.350Z,8.90
2019-02-26T18:34:41.520Z,8.80
2019-02-26T18:39:42.919Z,8.70
2019-02-26T18:44:44.085Z,8.40
2019-02-26T18:49:45.226Z,8.30
2019-02-26T18:54:46.332Z,8.20
2019-02-26T18:59:47.463Z,8.30
2019-02-26T19:04:49.212Z,8.10
2019-02-26T19:09:50.578Z,7.90
2019-02-26T19:14:51.733Z,7.80
2019-02-26T19:19:52.861Z,7.60
2019-02-26T19:24:53.988Z,10.00
2019-02-26T19:29:55.154Z,7.50
2019-02-26T19:34:56.273Z,7.50
2019-02-26T19:39:57.493Z,7.60
2019-02-26T19:44:58.612Z,7.60
2019-02-26T19:49:59.806Z,7.50
2019-02-26T19:55:03.693Z,7.30
2019-02-26T20:00:11.244Z,7.10
2019-02-26T20:05:13.500Z,7.20
2019-02-26T20:10:16.081Z,7.20
2019-02-26T20:15:17.239Z,7.00
2019-02-26T20:20:19.645Z,7.00
2019-02-26T20:25:21.007Z,6.90
2019-02-26T20:30:23.171Z,6.80
2019-02-26T20:35:24.506Z,6.70
2019-02-26T20:40:25.656Z,6.50
2019-02-26T20:45:26.904Z,6.60
2019-02-26T20:50:28.223Z,6.60
2019-02-26T20:55:30.332Z,6.50
2019-02-26T21:00:31.478Z,6.50
2019-02-26T21:05:32.582Z,6.50
2019-02-26T21:10:33.686Z,6.50
2019-02-26T21:15:34.815Z,6.60
2019-02-26T21:20:35.922Z,6.40
2019-02-26T21:25:37.032Z,6.40
2019-02-26T21:30:38.340Z,6.10
2019-02-26T21:35:39.440Z,6.00
2019-02-26T21:40:40.555Z,5.90
2019-02-26T21:45:41.662Z,5.80
2019-02-26T21:50:42.878Z,5.70
2019-02-26T21:55:44.713Z,5.50
2019-02-26T22:00:45.905Z,5.20
2019-02-26T22:05:46.991Z,5.50
2019-02-26T22:10:48.105Z,4.90
2019-02-26T22:15:49.221Z,4.90
2019-02-26T22:20:50.443Z,4.80
2019-02-26T22:25:52.549Z,5.70
2019-02-26T22:30:55.950Z,4.90
2019-02-26T22:35:59.839Z,5.10
2019-02-26T22:41:02.303Z,5.30
2019-02-26T22:46:05.470Z,5.20
2019-02-26T22:51:06.575Z,5.60
2019-02-26T22:56:07.707Z,5.60
2019-02-26T23:01:30.485Z,4.20
2019-02-26T23:06:31.707Z,4.40
2019-02-26T23:11:33.419Z,4.60
2019-02-26T23:16:35.011Z,4.10
2019-02-26T23:21:36.510Z,4.00
2019-02-26T23:26:41.799Z,3.90
2019-02-26T23:31:40.741Z,3.70
2019-02-26T23:36:42.045Z,3.40
2019-02-26T23:41:43.272Z,3.20
2019-02-26T23:46:44.369Z,3.10
2019-02-26T23:51:45.572Z,4.20
2019-02-26T23:56:46.672Z,3.10
